Anhout Swan — OWMK2 — position and weather

sailwx.info

Track history (hours):
 
Tides and Currents Weather Stations Pressure Air Temp Water Temp Dewpoint Dewpoint Depression Visibility Wind Speed Wind Dir Waves Ship Positions

Anhout Swan

Last reported at 2018-Apr-23 05:20 UTC. Time now 2018-Apr-23 21:28 UTC.
Position N 39°26' W 009°57'.

Length 120 m; draft 5.8 m.

Type: Tanker. MMSI: 219473000.

Date/timePositionNaut miles runAvg speedWind from/ knotsBaromVisibWave heightAir tempDewpointWater temp
2018-Apr-23 05:20N 39°26' W 009°57'412.1
2018-Apr-23 05:00N 39°22' W 009°58'612.5
2018-Apr-23 04:31N 39°16' W 009°57'612.6
2018-Apr-23 04:00N 39°09' W 009°57'612.7
2018-Apr-23 03:30N 39°03' W 009°57'612.7
2018-Apr-23 03:01N 38°57' W 009°57'612.7
2018-Apr-23 02:30N 38°50' W 009°57'612.4
2018-Apr-23 02:00N 38°44' W 009°57'612.2
2018-Apr-23 01:30N 38°38' W 009°56'612.3
2018-Apr-23 01:00N 38°32' W 009°54'612.3
2018-Apr-23 00:31N 38°26' W 009°52'612.0
2018-Apr-23 00:00N 38°20' W 009°51'611.8
2018-Apr-22 23:31N 38°14' W 009°49'612.0
2018-Apr-22 23:00N 38°09' W 009°47'612.1
2018-Apr-22 22:30N 38°03' W 009°45'611.9
2018-Apr-22 21:59N 37°57' W 009°44'612.0
2018-Apr-22 21:29N 37°51' W 009°42'611.9
2018-Apr-22 21:01N 37°45' W 009°40'712.0
2018-Apr-22 20:27N 37°39' W 009°38'  
Track history (hours):
 
Tides and Currents Weather Stations Pressure Air Temp Water Temp Dewpoint Dewpoint Depression Visibility Wind Speed Wind Dir Waves Ship Positions

Anhout Swan

Last reported at 2018-Apr-23 05:20 UTC. Time now 2018-Apr-23 21:28 UTC.
Position N 39°26' W 009°57'.

Length 120 m; draft 5.8 m.

Type: Tanker. MMSI: 219473000.

Date/timePositionNaut miles runAvg speedWind from/ knotsBaromVisibWave heightAir tempDewpointWater temp
2018-Apr-23 05:20N 39°26' W 009°57'412.1
2018-Apr-23 05:00N 39°22' W 009°58'612.5
2018-Apr-23 04:31N 39°16' W 009°57'612.6
2018-Apr-23 04:00N 39°09' W 009°57'612.7
2018-Apr-23 03:30N 39°03' W 009°57'612.7
2018-Apr-23 03:01N 38°57' W 009°57'612.7
2018-Apr-23 02:30N 38°50' W 009°57'612.4
2018-Apr-23 02:00N 38°44' W 009°57'612.2
2018-Apr-23 01:30N 38°38' W 009°56'612.3
2018-Apr-23 01:00N 38°32' W 009°54'612.3
2018-Apr-23 00:31N 38°26' W 009°52'612.0
2018-Apr-23 00:00N 38°20' W 009°51'611.8
2018-Apr-22 23:31N 38°14' W 009°49'612.0
2018-Apr-22 23:00N 38°09' W 009°47'612.1
2018-Apr-22 22:30N 38°03' W 009°45'611.9
2018-Apr-22 21:59N 37°57' W 009°44'612.0
2018-Apr-22 21:29N 37°51' W 009°42'611.9
2018-Apr-22 21:01N 37°45' W 009°40'712.0
2018-Apr-22 20:27N 37°39' W 009°38'  

Dump ship's entire track history